createdAt,value
2023-02-19T00:02:35.796Z,2.57
2023-02-19T00:06:40.306Z,2.53
2023-02-19T00:10:45.963Z,2.51
2023-02-19T00:14:48.948Z,2.49
2023-02-19T00:18:52.360Z,2.49
2023-02-19T00:22:57.110Z,2.47
2023-02-19T00:27:00.205Z,2.50
2023-02-19T00:31:07.993Z,2.51
2023-02-19T00:35:11.051Z,2.49
2023-02-19T00:39:18.806Z,2.49
2023-02-19T00:43:22.283Z,2.47
2023-02-19T00:47:25.000Z,2.47
2023-02-19T00:51:30.797Z,2.47
2023-02-19T00:55:35.620Z,2.46
2023-02-19T00:59:38.798Z,2.47
2023-02-19T01:03:42.001Z,2.47
2023-02-19T01:07:44.614Z,2.48
2023-02-19T01:11:48.986Z,2.47
2023-02-19T01:15:51.860Z,2.45
2023-02-19T01:19:55.155Z,2.45
2023-02-19T01:23:58.910Z,2.43
2023-02-19T01:28:03.573Z,2.46
2023-02-19T01:32:06.568Z,2.44
2023-02-19T01:36:10.123Z,2.41
2023-02-19T01:40:13.576Z,2.39
2023-02-19T01:44:56.778Z,2.38
2023-02-19T01:49:06.938Z,2.38
2023-02-19T01:53:13.322Z,2.39
2023-02-19T01:57:23.211Z,2.40
2023-02-19T02:01:26.440Z,2.42
2023-02-19T02:05:47.086Z,2.44
2023-02-19T02:10:09.962Z,2.42
2023-02-19T02:14:12.810Z,2.44
2023-02-19T02:18:21.907Z,2.44
2023-02-19T02:22:31.217Z,2.43
2023-02-19T02:26:52.912Z,2.43
2023-02-19T02:31:01.174Z,2.44
2023-02-19T02:35:09.984Z,2.41
2023-02-19T02:39:16.601Z,2.38
2023-02-19T02:43:19.564Z,2.37
2023-02-19T02:47:37.945Z,2.35
2023-02-19T02:51:43.142Z,2.34
2023-02-19T02:55:48.950Z,2.32
2023-02-19T02:59:52.387Z,2.29
2023-02-19T03:04:03.654Z,2.26
2023-02-19T03:08:11.201Z,2.26
2023-02-19T03:12:38.466Z,2.26
2023-02-19T03:17:01.852Z,2.25
2023-02-19T03:21:10.999Z,2.25
2023-02-19T03:25:35.497Z,2.23
2023-02-19T03:29:41.507Z,2.24
2023-02-19T03:33:50.008Z,2.25
2023-02-19T03:38:03.674Z,2.24
2023-02-19T03:42:14.326Z,2.26
2023-02-19T03:46:24.099Z,2.25
2023-02-19T03:50:31.899Z,2.24
2023-02-19T03:54:45.762Z,2.26
2023-02-19T03:58:55.246Z,2.24
2023-02-19T04:03:03.876Z,2.23
2023-02-19T04:07:07.398Z,2.26
2023-02-19T04:11:13.173Z,2.25
2023-02-19T04:15:22.820Z,2.19
2023-02-19T04:19:28.451Z,2.17
2023-02-19T04:23:37.806Z,2.16
2023-02-19T04:27:43.156Z,2.17
2023-02-19T04:31:46.112Z,2.21
2023-02-19T04:35:48.933Z,2.20
2023-02-19T04:39:51.976Z,2.22
2023-02-19T04:43:56.312Z,2.24
2023-02-19T04:47:59.952Z,2.23
2023-02-19T04:52:02.645Z,2.21
2023-02-19T04:56:09.723Z,2.20
2023-02-19T05:00:15.211Z,2.17
2023-02-19T05:04:18.310Z,2.13
2023-02-19T05:08:21.307Z,2.06
2023-02-19T05:12:24.422Z,1.98
2023-02-19T05:16:29.263Z,1.90
2023-02-19T05:20:32.274Z,1.80
2023-02-19T05:24:35.305Z,1.76
2023-02-19T05:28:38.383Z,1.69
2023-02-19T05:32:42.760Z,1.64
2023-02-19T05:36:45.775Z,1.63
2023-02-19T05:40:49.214Z,1.63
2023-02-19T05:44:52.177Z,1.62
2023-02-19T05:48:58.866Z,1.60
2023-02-19T05:53:03.521Z,1.63
2023-02-19T05:57:06.422Z,1.60
2023-02-19T06:01:16.566Z,1.60
2023-02-19T06:05:21.509Z,1.63
2023-02-19T06:09:24.449Z,1.63
2023-02-19T06:13:27.328Z,1.67
2023-02-19T06:17:30.021Z,1.74
2023-02-19T06:21:34.230Z,1.78
2023-02-19T06:25:37.161Z,1.81
2023-02-19T06:29:40.159Z,1.83
2023-02-19T06:33:44.819Z,1.92
2023-02-19T06:37:52.057Z,2.13
2023-02-19T06:41:57.219Z,2.36
2023-02-19T06:46:01.628Z,2.53
2023-02-19T06:50:07.962Z,2.78
2023-02-19T06:54:12.388Z,2.82
2023-02-19T06:58:15.702Z,2.72
2023-02-19T07:02:18.461Z,2.67
2023-02-19T07:06:21.761Z,2.64
2023-02-19T07:10:26.481Z,2.62
2023-02-19T07:14:30.207Z,2.64
2023-02-19T07:18:33.798Z,2.68
2023-02-19T07:22:36.950Z,2.75
2023-02-19T07:26:41.370Z,2.80
2023-02-19T07:30:44.599Z,2.83
2023-02-19T07:34:47.596Z,2.85
2023-02-19T07:38:56.657Z,2.84
2023-02-19T07:43:03.979Z,2.85
2023-02-19T07:47:08.571Z,2.87
2023-02-19T07:51:16.735Z,2.94
2023-02-19T07:55:19.979Z,2.96
2023-02-19T07:59:24.695Z,3.03
2023-02-19T08:03:27.863Z,3.07
2023-02-19T08:07:33.773Z,3.21
2023-02-19T08:11:54.154Z,3.36
2023-02-19T08:16:18.655Z,3.60
2023-02-19T08:20:27.402Z,3.74
2023-02-19T08:24:34.087Z,3.67
2023-02-19T08:28:37.488Z,3.60
2023-02-19T08:32:41.811Z,3.61
2023-02-19T08:36:45.060Z,3.61
2023-02-19T08:40:47.948Z,4.03
2023-02-19T08:44:53.099Z,4.62
2023-02-19T08:48:57.414Z,4.87
2023-02-19T08:53:02.313Z,4.71
2023-02-19T08:57:07.807Z,4.67
2023-02-19T09:01:12.738Z,4.36
2023-02-19T09:05:17.495Z,4.34
2023-02-19T09:09:20.524Z,4.47
2023-02-19T09:13:23.602Z,4.57
2023-02-19T09:17:29.584Z,4.62
2023-02-19T09:21:34.290Z,4.55
2023-02-19T09:25:37.504Z,4.70
2023-02-19T09:29:40.768Z,4.66
2023-02-19T09:33:45.259Z,4.97
2023-02-19T09:37:49.416Z,5.77
2023-02-19T09:41:55.451Z,6.29
2023-02-19T09:46:04.890Z,7.21
2023-02-19T09:50:09.174Z,6.23
2023-02-19T09:54:22.027Z,5.73
2023-02-19T09:58:30.641Z,5.59
2023-02-19T10:02:34.627Z,5.55
2023-02-19T10:06:38.351Z,5.95
2023-02-19T10:10:42.898Z,6.10
2023-02-19T10:14:51.860Z,6.09
2023-02-19T10:18:56.807Z,5.90
2023-02-19T10:23:03.701Z,5.79
2023-02-19T10:27:13.611Z,5.94
2023-02-19T10:31:20.828Z,5.69
2023-02-19T10:35:23.867Z,5.55
2023-02-19T10:39:42.447Z,5.63
2023-02-19T10:43:54.948Z,5.79
2023-02-19T10:47:58.761Z,5.74
2023-02-19T10:52:05.765Z,5.61
2023-02-19T10:56:10.784Z,5.88
2023-02-19T11:00:27.030Z,6.20
2023-02-19T11:04:34.343Z,6.20
2023-02-19T11:08:49.043Z,5.91
2023-02-19T11:12:53.224Z,5.78
2023-02-19T11:16:59.305Z,5.68
2023-02-19T11:21:07.430Z,5.70
2023-02-19T11:25:25.748Z,5.51
2023-02-19T11:29:34.889Z,5.24
2023-02-19T11:33:46.085Z,5.06
2023-02-19T11:38:00.221Z,5.14
2023-02-19T11:42:30.280Z,5.35
2023-02-19T11:46:46.524Z,5.89
2023-02-19T11:51:06.910Z,5.95
2023-02-19T11:55:18.056Z,5.55
2023-02-19T11:59:32.588Z,5.27
2023-02-19T12:04:06.320Z,5.23
2023-02-19T12:08:47.722Z,5.36
2023-02-19T12:13:03.316Z,5.77
2023-02-19T12:17:16.771Z,6.03
2023-02-19T12:21:30.442Z,5.91
2023-02-19T12:25:56.438Z,5.89
2023-02-19T12:30:26.668Z,5.68
2023-02-19T12:35:03.591Z,5.52
2023-02-19T12:39:17.841Z,5.41
2023-02-19T12:43:22.512Z,5.55
2023-02-19T12:47:33.629Z,5.95
2023-02-19T12:51:42.911Z,6.48
2023-02-19T12:55:47.277Z,6.62
2023-02-19T12:59:57.478Z,6.42
2023-02-19T13:04:17.630Z,6.32
2023-02-19T13:08:27.802Z,5.93
2023-02-19T13:12:34.894Z,5.45
2023-02-19T13:16:43.728Z,5.20
2023-02-19T13:20:52.167Z,4.97
2023-02-19T13:24:57.294Z,4.74
2023-02-19T13:29:12.857Z,4.61
2023-02-19T13:33:35.322Z,4.57
2023-02-19T13:37:42.397Z,4.56
2023-02-19T13:41:52.368Z,4.63
2023-02-19T13:46:01.103Z,4.54
2023-02-19T13:50:09.939Z,4.52
2023-02-19T13:54:30.604Z,4.60
2023-02-19T13:58:55.177Z,4.60
2023-02-19T14:03:28.879Z,4.49
2023-02-19T14:07:55.144Z,4.32
2023-02-19T14:12:19.674Z,4.24
2023-02-19T14:16:53.895Z,4.41
2023-02-19T14:21:09.646Z,4.40
2023-02-19T14:25:22.640Z,4.32
2023-02-19T14:29:30.519Z,4.37
2023-02-19T14:33:35.524Z,4.43
2023-02-19T14:37:41.983Z,4.55
2023-02-19T14:41:48.949Z,4.68
2023-02-19T14:45:57.851Z,4.76
2023-02-19T14:50:04.421Z,4.73
2023-02-19T14:54:16.260Z,4.66
2023-02-19T14:58:24.214Z,4.60
2023-02-19T15:02:32.260Z,4.53
2023-02-19T15:06:39.974Z,4.47
2023-02-19T15:10:44.897Z,4.40
2023-02-19T15:14:49.669Z,4.31
2023-02-19T15:19:00.621Z,4.26
2023-02-19T15:23:05.950Z,4.26
2023-02-19T15:27:18.297Z,4.15
2023-02-19T15:31:21.348Z,4.09
2023-02-19T15:35:28.202Z,4.00
2023-02-19T15:39:36.252Z,3.99
2023-02-19T15:43:45.936Z,3.96
2023-02-19T15:47:53.328Z,3.82
2023-02-19T15:52:03.038Z,3.76
2023-02-19T15:56:10.645Z,3.75
2023-02-19T16:00:24.284Z,3.70
2023-02-19T16:04:27.722Z,3.62
2023-02-19T16:08:36.780Z,3.58
2023-02-19T16:12:39.532Z,3.55
2023-02-19T16:16:44.497Z,3.56
2023-02-19T16:20:51.392Z,3.59
2023-02-19T16:24:59.369Z,3.59
2023-02-19T16:29:02.590Z,3.59
2023-02-19T16:33:38.598Z,3.56
2023-02-19T16:37:44.466Z,3.55
2023-02-19T16:42:19.888Z,3.50
2023-02-19T16:46:29.498Z,3.49
2023-02-19T16:50:34.250Z,3.40
2023-02-19T16:54:37.174Z,3.33
2023-02-19T16:58:41.658Z,3.29
2023-02-19T17:02:44.838Z,3.27
2023-02-19T17:06:48.760Z,3.17
2023-02-19T17:10:51.668Z,3.09
2023-02-19T17:14:55.940Z,2.95
2023-02-19T17:19:01.729Z,2.78
2023-02-19T17:23:04.619Z,2.55
2023-02-19T17:27:11.798Z,2.36
2023-02-19T17:31:17.029Z,2.15
2023-02-19T17:35:19.821Z,1.96
2023-02-19T17:39:25.409Z,1.89
2023-02-19T17:43:28.570Z,1.84
2023-02-19T17:47:33.021Z,1.63
2023-02-19T17:51:36.377Z,1.65
2023-02-19T17:55:39.403Z,1.55
2023-02-19T17:59:42.637Z,1.48
2023-02-19T18:03:49.793Z,1.41
2023-02-19T18:07:53.848Z,1.26
2023-02-19T18:11:56.512Z,1.17
2023-02-19T18:15:59.618Z,1.09
2023-02-19T18:20:06.074Z,1.02
2023-02-19T18:24:08.731Z,0.95
2023-02-19T18:28:11.511Z,1.02
2023-02-19T18:32:14.224Z,1.17
2023-02-19T18:36:18.681Z,1.04
2023-02-19T18:40:21.994Z,0.89
2023-02-19T18:44:26.415Z,0.88
2023-02-19T18:48:29.586Z,0.77
2023-02-19T18:52:34.140Z,0.71
2023-02-19T18:56:43.150Z,0.70
2023-02-19T19:00:46.020Z,0.61
2023-02-19T19:04:51.502Z,0.58
2023-02-19T19:08:56.067Z,0.65
2023-02-19T19:13:03.450Z,0.73
2023-02-19T19:17:07.030Z,0.64
2023-02-19T19:21:10.010Z,0.55
2023-02-19T19:25:15.392Z,0.51
2023-02-19T19:29:23.111Z,0.42
2023-02-19T19:33:28.119Z,0.26
2023-02-19T19:37:31.972Z,0.16
2023-02-19T19:41:36.353Z,0.07
2023-02-19T19:45:42.239Z,0.19
2023-02-19T19:49:47.629Z,0.23
2023-02-19T19:53:54.015Z,0.26
2023-02-19T19:57:58.585Z,0.17
2023-02-19T20:02:02.954Z,0.19
2023-02-19T20:06:06.797Z,0.19
2023-02-19T20:10:11.694Z,-0.01
2023-02-19T20:14:19.934Z,-0.16
2023-02-19T20:18:26.204Z,-0.24
2023-02-19T20:22:29.208Z,-0.22
2023-02-19T20:26:33.086Z,-0.14
2023-02-19T20:30:37.722Z,-0.23
2023-02-19T20:34:41.535Z,-0.36
2023-02-19T20:38:46.479Z,-0.38
2023-02-19T20:42:49.609Z,-0.38
2023-02-19T20:46:54.563Z,-0.39
2023-02-19T20:50:59.800Z,-0.37
2023-02-19T20:55:03.042Z,-0.37
2023-02-19T20:59:06.147Z,-0.27
2023-02-19T21:03:11.852Z,-0.28
2023-02-19T21:07:15.408Z,-0.34
2023-02-19T21:11:18.566Z,-0.43
2023-02-19T21:15:21.901Z,-0.40
2023-02-19T21:19:29.860Z,-0.57
2023-02-19T21:23:33.217Z,-0.61
2023-02-19T21:27:36.392Z,-0.58
2023-02-19T21:31:40.956Z,-0.44
2023-02-19T21:35:45.453Z,-0.46
2023-02-19T21:39:48.717Z,-0.60
2023-02-19T21:43:51.894Z,-0.64
2023-02-19T21:47:56.842Z,-0.50
2023-02-19T21:52:01.713Z,-0.53
2023-02-19T21:56:05.225Z,-0.61
2023-02-19T22:00:10.219Z,-0.75
2023-02-19T22:04:15.967Z,-0.80
2023-02-19T22:08:22.760Z,-0.73
2023-02-19T22:12:26.136Z,-0.71
2023-02-19T22:16:29.847Z,-0.71
2023-02-19T22:20:35.122Z,-0.58
2023-02-19T22:24:42.395Z,-0.54
2023-02-19T22:28:46.087Z,-0.57
2023-02-19T22:32:49.172Z,-0.66
2023-02-19T22:36:52.445Z,-0.71
2023-02-19T22:40:57.014Z,-0.50
2023-02-19T22:45:00.026Z,-0.38
2023-02-19T22:49:05.607Z,-0.16
2023-02-19T22:53:08.830Z,0.11
2023-02-19T22:57:13.429Z,0.20
2023-02-19T23:01:17.641Z,0.18
2023-02-19T23:05:20.902Z,0.26
2023-02-19T23:09:26.811Z,0.38
2023-02-19T23:13:33.969Z,0.61
2023-02-19T23:17:36.861Z,0.68
2023-02-19T23:21:40.360Z,0.72
2023-02-19T23:25:46.188Z,0.86
2023-02-19T23:29:50.673Z,0.87
2023-02-19T23:33:53.778Z,0.90
2023-02-19T23:37:56.887Z,0.93
2023-02-19T23:41:59.905Z,1.03
2023-02-19T23:46:04.657Z,1.11
2023-02-19T23:50:08.810Z,1.15
2023-02-19T23:54:12.540Z,1.19
2023-02-19T23:58:18.444Z,1.19
